»·PEaware :: DAL213 KSBA-KSNA

DAL213 :: KSBA-KSNA

FLIGHT INFORMATION

Flight Status: Arrived
Operator:
Delta Air Lines
More flights by this operator :: More flights under this callsign
Pilot: Nico L. (9332)
Aircraft: BOEING 737-800
(B738)
More flights by this aircraft type
Origin: KSBA Santa Barbara Mun
United States
Destination: KSNA John Wayne-Orange Co
United States
More flights between these airports :: More routes between these airports
Route: +KWANG VTU V208 SXC SLI
File this flight plan on PilotEdge
Remarks: Live Streaming on Twitch "DAL213" and YT
Altitude:
(Current/Filed)
25,000ft
Speed:
(Current/Filed)
400kts
Departed: 31-Jan-19 12:56 PM
Arrived: 31-Jan-19 01:29 PM
Distance/Time
Traveled:
108nm/0:32
Distance/Time
To Go:
Arrived

Flight Plot

Page will automatically refresh every two minutes.


Map Options




Map Legend


Flown Route
Filed Route
Departure Airport
Arrival Airport
Navaid (VOR, NDB)
Fix

Horizontal Profiles

Position Reports

Time Latitude Longitude Heading Altitude Ground
Speed
31-Jan-19 12:39 34.425141 -119.837291 113 19ft 0kts
31-Jan-19 12:40 34.425141 -119.837291 113 19ft 0kts
31-Jan-19 12:41 34.425141 -119.837291 113 19ft 0kts
31-Jan-19 12:42 34.425141 -119.837291 113 19ft 0kts
31-Jan-19 12:43 34.425141 -119.837291 113 19ft 0kts
31-Jan-19 12:44 34.425141 -119.837291 113 19ft 0kts
31-Jan-19 12:45 34.425141 -119.837291 113 19ft 0kts
31-Jan-19 12:46 34.425141 -119.837291 113 19ft 0kts
31-Jan-19 12:47 34.425141 -119.837291 113 19ft 0kts
31-Jan-19 12:48 34.425141 -119.837291 113 19ft 0kts
31-Jan-19 12:49 34.425150 -119.837315 113 19ft 1kts
31-Jan-19 12:50 34.425166 -119.838007 66 19ft 0kts
31-Jan-19 12:50 34.425166 -119.838007 66 19ft 0kts
31-Jan-19 12:51 34.425166 -119.838006 66 19ft 0kts
31-Jan-19 12:53 34.426751 -119.836377 88 19ft 19kts
31-Jan-19 12:54 34.426917 -119.835259 22 19ft 0kts
31-Jan-19 12:54 34.427677 -119.835127 357 19ft 14kts
31-Jan-19 12:55 34.427370 -119.861162 270 644ft 165kts
31-Jan-19 12:56 34.424879 -119.925489 266 3166ft 223kts
31-Jan-19 12:57 34.368889 -119.936879 153 6131ft 273kts
31-Jan-19 12:58 34.299879 -119.891397 152 8028ft 284kts
31-Jan-19 12:59 34.239138 -119.831594 129 10160ft 290kts
31-Jan-19 13:00 34.186667 -119.744365 129 11028ft 337kts
31-Jan-19 13:01 34.131206 -119.652252 129 11025ft 340kts
31-Jan-19 13:02 34.075375 -119.559807 129 11018ft 340kts
31-Jan-19 13:03 34.019643 -119.467776 129 11012ft 340kts
31-Jan-19 13:04 33.963764 -119.375746 129 11037ft 342kts
31-Jan-19 13:05 33.907405 -119.283147 129 11037ft 341kts
31-Jan-19 13:06 33.851201 -119.191041 129 11038ft 342kts
31-Jan-19 13:07 33.794775 -119.098811 130 11036ft 341kts
31-Jan-19 13:08 33.738467 -119.006984 129 11046ft 341kts
31-Jan-19 13:09 33.682074 -118.915313 129 11022ft 339kts
31-Jan-19 13:10 33.633094 -118.818747 96 11069ft 347kts
31-Jan-19 13:11 33.640388 -118.713853 87 10077ft 288kts
31-Jan-19 13:12 33.648189 -118.620062 87 8560ft 276kts
31-Jan-19 13:13 33.655081 -118.529807 87 7042ft 267kts
31-Jan-19 13:14 33.661349 -118.441341 87 6710ft 272kts
31-Jan-19 13:15 33.666904 -118.349458 88 6182ft 254kts
31-Jan-19 13:16 33.671352 -118.263065 88 5253ft 275kts
31-Jan-19 13:17 33.675194 -118.166287 88 5609ft 328kts
31-Jan-19 13:18 33.680507 -118.062968 82 5433ft 269kts
31-Jan-19 13:19 33.726492 -117.988638 36 6210ft 299kts
31-Jan-19 13:20 33.806516 -117.938196 27 4968ft 344kts
31-Jan-19 13:21 33.884256 -117.890322 31 4417ft 291kts
31-Jan-19 13:22 33.953410 -117.828234 56 3807ft 314kts
31-Jan-19 13:23 33.933424 -117.736454 148 4024ft 329kts
31-Jan-19 13:24 33.854553 -117.758223 196 3420ft 276kts
31-Jan-19 13:25 33.783824 -117.800764 209 2748ft 275kts
31-Jan-19 13:26 33.730756 -117.834908 208 1027ft 170kts
31-Jan-19 13:27 33.694505 -117.856919 206 336ft 137kts
31-Jan-19 13:28 33.669872 -117.872172 161 65ft 20kts
31-Jan-19 13:29 33.669179 -117.870722 43 65ft 12kts
31-Jan-19 13:30 33.672177 -117.868066 28 65ft 16kts
31-Jan-19 13:31 33.675592 -117.865533 27 65ft 13kts
31-Jan-19 13:32 33.678712 -117.863593 27 65ft 11kts
31-Jan-19 13:33 33.679008 -117.862611 116 65ft 0kts
31-Jan-19 13:34 33.679008 -117.862611 116 65ft 0kts
31-Jan-19 13:35 33.679008 -117.862611 116 65ft 0kts
31-Jan-19 13:36 33.679008 -117.862611 116 65ft 0kts
31-Jan-19 13:37 33.679008 -117.862611 116 65ft 0kts
31-Jan-19 13:38 33.679008 -117.862611 116 65ft 0kts
31-Jan-19 13:39 33.679008 -117.862611 116 65ft 0kts
31-Jan-19 13:40 33.679008 -117.862611 116 65ft 0kts
31-Jan-19 13:41 33.679008 -117.862611 116 65ft 0kts

Navigation Log

Ident Type
Flight plan parsing failed, navigation log unavailable